Time;durP1;ratioP1;P1;durP2;ratioP2;P2;SDS_P1;SDS_P2;PMS_P1;PMS_P2;Temp;Humidity;BMP_temperature;BMP_pressure;BME280_temperature;BME280_humidity;BME280_pressure;Samples;Min_cycle;Max_cycle;Signal;HPM_P1;HPM_P2
2022/01/11 00:02:03;;;;;;;26.38;13.45;;;;;;;;;;4993302;28;20026;-38
2022/01/11 00:04:30;;;;;;;30.83;14.05;;;;;;;;;;4993203;28;20027;-38
2022/01/11 00:06:56;;;;;;;31.80;13.32;;;;;;;;;;4992871;28;20053;-39
2022/01/11 00:09:40;;;;;;;27.98;13.90;;;;;;;;;;4992902;28;20030;-37
2022/01/11 00:12:08;;;;;;;25.08;12.60;;;;;;;;;;4993082;28;20096;-37
2022/01/11 00:14:34;;;;;;;29.15;13.30;;;;;;;;;;4991680;28;20398;-38
2022/01/11 00:17:00;;;;;;;29.15;13.38;;;;;;;;;;4993075;28;20046;-37
2022/01/11 00:19:28;;;;;;;29.58;13.63;;;;;;;;;;4992734;28;20031;-38
2022/01/11 00:21:54;;;;;;;26.45;13.30;;;;;;;;;;4991510;28;20030;-39
2022/01/11 00:24:33;;;;;;;30.20;12.98;;;;;;;;;;4993019;28;20085;-38
2022/01/11 00:27:05;;;;;;;28.85;12.90;;;;;;;;;;4992771;28;20038;-39
2022/01/11 00:29:33;;;;;;;24.95;12.85;;;;;;;;;;4996246;28;20533;-37
2022/01/11 00:32:07;;;;;;;24.38;13.00;;;;;;;;;;4996685;28;20560;-37
2022/01/11 00:35:10;;;;;;;28.00;14.50;;;;;;;;;;4996594;28;20026;-38
2022/01/11 00:37:25;;;;;;;28.27;13.27;;;;;;;;;;4994165;28;20572;-38
2022/01/11 00:39:52;;;;;;;26.08;13.25;;;;;;;;;;4995340;28;20381;-37
2022/01/11 00:42:19;;;;;;;28.23;13.15;;;;;;;;;;4996324;28;20026;-36
2022/01/11 00:44:45;;;;;;;26.17;12.77;;;;;;;;;;4996107;28;20121;-38
2022/01/11 00:47:11;;;;;;;26.77;12.55;;;;;;;;;;4996032;28;20058;-38
2022/01/11 00:49:39;;;;;;;29.15;13.38;;;;;;;;;;4996284;28;20030;-38
2022/01/11 00:52:09;;;;;;;27.13;12.65;;;;;;;;;;4995822;28;20033;-36
2022/01/11 00:54:34;;;;;;;26.90;12.90;;;;;;;;;;4995977;28;20035;-37
2022/01/11 00:57:00;;;;;;;25.98;12.30;;;;;;;;;;4995907;28;20617;-37
2022/01/11 00:59:25;;;;;;;24.50;11.90;;;;;;;;;;4995774;28;20041;-38
2022/01/11 01:01:50;;;;;;;24.42;12.25;;;;;;;;;;4996124;28;20030;-37
2022/01/11 01:04:17;;;;;;;26.40;12.63;;;;;;;;;;4995645;28;20058;-38
2022/01/11 01:06:45;;;;;;;27.70;11.82;;;;;;;;;;4995981;28;20026;-38
2022/01/11 01:09:10;;;;;;;26.35;12.57;;;;;;;;;;4995710;28;20057;-35
2022/01/11 01:11:36;;;;;;;25.77;12.82;;;;;;;;;;4995641;28;20031;-38
2022/01/11 01:14:01;;;;;;;25.50;10.55;;;;;;;;;;4995742;28;20077;-38
2022/01/11 01:16:27;;;;;;;27.60;11.25;;;;;;;;;;4995884;28;20061;-38
2022/01/11 01:18:52;;;;;;;30.90;13.13;;;;;;;;;;4995433;28;20412;-37
2022/01/11 01:21:18;;;;;;;29.65;12.20;;;;;;;;;;4995560;28;20027;-38
2022/01/11 01:23:43;;;;;;;25.00;11.73;;;;;;;;;;4995677;28;20038;-38
2022/01/11 01:26:09;;;;;;;25.27;11.88;;;;;;;;;;4995634;28;20022;-37
2022/01/11 01:28:35;;;;;;;23.92;11.50;;;;;;;;;;4995311;28;20022;-38
2022/01/11 01:31:01;;;;;;;23.33;12.15;;;;;;;;;;4995582;28;20027;-38
2022/01/11 01:33:32;;;;;;;24.38;11.95;;;;;;;;;;4993805;28;20521;-37
2022/01/11 01:36:03;;;;;;;22.30;11.88;;;;;;;;;;4994882;28;20184;-37
2022/01/11 01:38:31;;;;;;;26.95;12.90;;;;;;;;;;4995296;28;20053;-38
2022/01/11 01:41:02;;;;;;;22.85;10.52;;;;;;;;;;4995635;28;20022;-37
2022/01/11 01:43:29;;;;;;;23.83;11.68;;;;;;;;;;4995162;28;20030;-38
2022/01/11 01:45:58;;;;;;;23.10;11.82;;;;;;;;;;4995429;28;20023;-38
2022/01/11 01:48:24;;;;;;;24.25;10.40;;;;;;;;;;4995301;28;20026;-38
2022/01/11 01:50:51;;;;;;;24.88;11.45;;;;;;;;;;4995332;28;20022;-38
2022/01/11 01:53:17;;;;;;;23.15;10.48;;;;;;;;;;4993694;28;20038;-36
2022/01/11 01:55:46;;;;;;;24.75;11.18;;;;;;;;;;4994634;28;20513;-38
2022/01/11 01:58:13;;;;;;;23.42;10.95;;;;;;;;;;4995051;28;20030;-37
2022/01/11 02:00:46;;;;;;;26.90;10.32;;;;;;;;;;4995140;28;20030;-38
2022/01/11 02:03:13;;;;;;;22.05;9.85;;;;;;;;;;4994743;28;20125;-36
2022/01/11 02:05:43;;;;;;;22.67;10.10;;;;;;;;;;4993872;28;20022;-38
2022/01/11 02:08:10;;;;;;;21.95;10.85;;;;;;;;;;4994666;28;20390;-39
2022/01/11 02:10:37;;;;;;;23.75;10.23;;;;;;;;;;4994830;28;20053;-36
2022/01/11 02:13:04;;;;;;;24.75;10.88;;;;;;;;;;4994702;28;20315;-38
2022/01/11 02:15:30;;;;;;;22.50;9.73;;;;;;;;;;4994767;28;20034;-39
2022/01/11 02:18:09;;;;;;;22.90;10.88;;;;;;;;;;4994692;28;20030;-37
2022/01/11 02:20:39;;;;;;;24.08;10.85;;;;;;;;;;4994766;28;20084;-38
2022/01/11 02:23:05;;;;;;;20.65;9.85;;;;;;;;;;4993144;28;20033;-38
2022/01/11 02:25:30;;;;;;;24.92;11.70;;;;;;;;;;4994287;28;20034;-37
2022/01/11 02:27:56;;;;;;;21.98;11.02;;;;;;;;;;4994568;28;20026;-38
2022/01/11 02:30:21;;;;;;;23.58;11.13;;;;;;;;;;4994227;28;20053;-38
2022/01/11 02:32:51;;;;;;;22.45;11.32;;;;;;;;;;4994032;28;20066;-37
2022/01/11 02:35:16;;;;;;;27.75;12.65;;;;;;;;;;4994199;28;20030;-39
2022/01/11 02:37:43;;;;;;;25.23;11.40;;;;;;;;;;4994111;28;20037;-38
2022/01/11 02:40:09;;;;;;;28.98;11.65;;;;;;;;;;4993161;28;20038;-37
2022/01/11 02:42:35;;;;;;;26.52;11.30;;;;;;;;;;4994080;28;20073;-38
2022/01/11 02:45:00;;;;;;;24.20;12.50;;;;;;;;;;4993976;28;20030;-39
2022/01/11 02:47:26;;;;;;;24.15;11.65;;;;;;;;;;4993972;28;20053;-38
2022/01/11 02:49:51;;;;;;;23.67;11.90;;;;;;;;;;4993929;28;20026;-39
2022/01/11 02:52:17;;;;;;;24.05;11.82;;;;;;;;;;4993675;28;20081;-38
2022/01/11 02:54:42;;;;;;;20.58;11.40;;;;;;;;;;4993599;28;20082;-37
2022/01/11 02:57:07;;;;;;;24.58;11.65;;;;;;;;;;4993763;28;20022;-37
2022/01/11 02:59:33;;;;;;;25.15;12.00;;;;;;;;;;4993972;28;20057;-36
2022/01/11 03:01:58;;;;;;;25.92;11.88;;;;;;;;;;4993695;28;20109;-38
2022/01/11 03:04:28;;;;;;;24.55;11.73;;;;;;;;;;4993846;28;20031;-37
2022/01/11 03:06:54;;;;;;;25.77;11.75;;;;;;;;;;4993818;28;20129;-38
2022/01/11 03:09:19;;;;;;;26.10;11.43;;;;;;;;;;4993810;28;20113;-37
2022/01/11 03:11:47;;;;;;;26.67;11.75;;;;;;;;;;4993836;28;20479;-36
2022/01/11 03:14:13;;;;;;;27.17;11.63;;;;;;;;;;4993470;28;20034;-38
2022/01/11 03:16:38;;;;;;;26.73;11.70;;;;;;;;;;4993711;28;20086;-36
2022/01/11 03:19:03;;;;;;;25.60;10.90;;;;;;;;;;4993372;28;20498;-36
2022/01/11 03:21:30;;;;;;;23.55;11.18;;;;;;;;;;4993691;28;20161;-38
2022/01/11 03:23:57;;;;;;;29.67;11.25;;;;;;;;;;4993285;28;20474;-37
2022/01/11 03:26:23;;;;;;;23.40;11.40;;;;;;;;;;4993372;28;20391;-38
2022/01/11 03:28:49;;;;;;;27.05;11.38;;;;;;;;;;4993189;28;20025;-38
2022/01/11 03:31:15;;;;;;;24.48;10.60;;;;;;;;;;4993436;28;20027;-37
2022/01/11 03:33:41;;;;;;;26.02;11.70;;;;;;;;;;4993359;28;20038;-38
2022/01/11 03:36:06;;;;;;;24.13;11.23;;;;;;;;;;4993515;28;20033;-38
2022/01/11 03:38:33;;;;;;;23.60;11.15;;;;;;;;;;4993173;28;20043;-39
2022/01/11 03:40:59;;;;;;;21.80;10.80;;;;;;;;;;4993375;28;20037;-38
2022/01/11 03:43:26;;;;;;;22.67;11.20;;;;;;;;;;4993186;28;20445;-38
2022/01/11 03:45:51;;;;;;;24.20;10.50;;;;;;;;;;4993388;28;20034;-38
2022/01/11 03:48:18;;;;;;;22.77;10.48;;;;;;;;;;4993337;28;20033;-37
2022/01/11 03:50:49;;;;;;;22.63;10.63;;;;;;;;;;4993315;28;20026;-38
2022/01/11 03:53:16;;;;;;;22.15;10.43;;;;;;;;;;4993264;28;20045;-38
2022/01/11 03:58:17;;;;;;;19.17;10.20;;;;;;;;;;4993375;28;20053;-38
2022/01/11 04:00:44;;;;;;;22.17;9.88;;;;;;;;;;4993220;28;20027;-37
2022/01/11 04:03:11;;;;;;;25.05;10.07;;;;;;;;;;4996428;28;20041;-39
2022/01/11 04:05:36;;;;;;;22.95;10.27;;;;;;;;;;4997228;28;20026;-38
2022/01/11 04:08:03;;;;;;;20.00;10.00;;;;;;;;;;4997174;28;20038;-37
2022/01/11 04:10:28;;;;;;;20.95;11.13;;;;;;;;;;4997116;28;20034;-38
2022/01/11 04:12:54;;;;;;;20.42;10.05;;;;;;;;;;4997092;28;20390;-36
2022/01/11 04:15:19;;;;;;;20.90;9.55;;;;;;;;;;4996988;28;20022;-37
2022/01/11 04:17:45;;;;;;;21.00;8.57;;;;;;;;;;4996728;28;20030;-38
2022/01/11 04:20:11;;;;;;;21.20;9.35;;;;;;;;;;4996980;28;20058;-38
2022/01/11 04:22:37;;;;;;;17.52;9.07;;;;;;;;;;4996964;28;20034;-38
2022/01/11 04:25:03;;;;;;;27.05;10.43;;;;;;;;;;4996830;28;20081;-38
2022/01/11 04:27:28;;;;;;;21.70;9.85;;;;;;;;;;4995293;28;20096;-36
2022/01/11 04:29:54;;;;;;;22.23;9.73;;;;;;;;;;4996503;28;20031;-36
2022/01/11 04:32:19;;;;;;;16.85;8.60;;;;;;;;;;4996704;28;20105;-37
2022/01/11 04:34:45;;;;;;;19.40;9.88;;;;;;;;;;4995113;28;20459;-37
2022/01/11 04:37:10;;;;;;;23.73;9.35;;;;;;;;;;4996430;28;20080;-36
2022/01/11 04:39:35;;;;;;;22.20;9.80;;;;;;;;;;4996613;28;20030;-36
2022/01/11 04:42:01;;;;;;;21.48;9.55;;;;;;;;;;4996314;28;20026;-38
2022/01/11 04:44:26;;;;;;;21.45;9.50;;;;;;;;;;4996294;28;20113;-38
2022/01/11 04:46:52;;;;;;;18.42;9.57;;;;;;;;;;4996470;28;20105;-37
2022/01/11 04:49:17;;;;;;;21.48;9.77;;;;;;;;;;4996157;28;20030;-37
2022/01/11 04:51:43;;;;;;;22.10;10.60;;;;;;;;;;4996493;28;20034;-37
2022/01/11 04:54:09;;;;;;;57.53;18.85;;;;;;;;;;4996293;28;20421;-36
2022/01/11 04:56:35;;;;;;;24.17;11.10;;;;;;;;;;4995880;28;20104;-36
2022/01/11 04:59:01;;;;;;;26.23;11.90;;;;;;;;;;4995880;28;20030;-38
2022/01/11 05:01:29;;;;;;;23.77;10.45;;;;;;;;;;4996158;28;20026;-37
2022/01/11 05:03:54;;;;;;;46.45;11.48;;;;;;;;;;4996084;28;20058;-38
2022/01/11 05:06:20;;;;;;;25.65;9.85;;;;;;;;;;4995917;28;20119;-38
2022/01/11 05:08:45;;;;;;;25.38;10.63;;;;;;;;;;4995841;28;20031;-37
2022/01/11 05:11:11;;;;;;;27.27;11.43;;;;;;;;;;4995668;28;20439;-38
2022/01/11 05:13:36;;;;;;;25.08;12.00;;;;;;;;;;4995330;28;20486;-38
2022/01/11 05:16:02;;;;;;;25.35;11.00;;;;;;;;;;4995847;28;20027;-37
2022/01/11 05:18:29;;;;;;;24.30;11.70;;;;;;;;;;4995728;28;20073;-36
2022/01/11 05:20:55;;;;;;;21.35;10.23;;;;;;;;;;4995723;28;20034;-36
2022/01/11 05:23:20;;;;;;;21.08;10.98;;;;;;;;;;4995730;28;20031;-38
2022/01/11 05:25:45;;;;;;;20.38;9.73;;;;;;;;;;4995648;28;20034;-36
2022/01/11 05:28:11;;;;;;;19.35;9.05;;;;;;;;;;4995337;28;20045;-36
2022/01/11 05:30:36;;;;;;;21.20;10.23;;;;;;;;;;4995329;28;20053;-37
2022/01/11 05:33:02;;;;;;;22.67;9.73;;;;;;;;;;4995484;28;20023;-36
2022/01/11 05:35:28;;;;;;;21.33;10.15;;;;;;;;;;4995548;28;20031;-38
2022/01/11 05:37:54;;;;;;;20.98;10.50;;;;;;;;;;4995508;28;20462;-37
2022/01/11 05:40:21;;;;;;;22.25;10.77;;;;;;;;;;4995241;28;20057;-36
2022/01/11 05:42:49;;;;;;;22.25;10.05;;;;;;;;;;4995343;28;20058;-38
2022/01/11 05:45:17;;;;;;;23.83;10.60;;;;;;;;;;4995453;28;20433;-36
2022/01/11 05:47:42;;;;;;;22.58;10.32;;;;;;;;;;4995054;28;20026;-38
2022/01/11 05:50:10;;;;;;;24.30;10.52;;;;;;;;;;4995232;28;20037;-36
2022/01/11 05:52:36;;;;;;;24.75;11.13;;;;;;;;;;4994886;28;20116;-37
2022/01/11 05:55:04;;;;;;;23.08;11.45;;;;;;;;;;4994760;28;20082;-39
2022/01/11 05:57:29;;;;;;;27.55;11.38;;;;;;;;;;4995160;28;20030;-37
2022/01/11 05:59:55;;;;;;;25.25;12.10;;;;;;;;;;4995112;28;20374;-40
2022/01/11 06:02:20;;;;;;;28.80;11.57;;;;;;;;;;4994838;28;20410;-36
2022/01/11 06:04:45;;;;;;;26.25;10.77;;;;;;;;;;4994716;28;20037;-36
2022/01/11 06:07:11;;;;;;;25.33;11.80;;;;;;;;;;4994699;28;20023;-38
2022/01/11 06:09:36;;;;;;;23.88;10.93;;;;;;;;;;4994981;28;20117;-38
2022/01/11 06:12:02;;;;;;;22.73;11.18;;;;;;;;;;4994614;28;20548;-37
2022/01/11 06:14:27;;;;;;;21.33;10.80;;;;;;;;;;4994390;28;20062;-36
2022/01/11 06:16:53;;;;;;;20.30;9.18;;;;;;;;;;4994728;28;20030;-37
2022/01/11 06:19:18;;;;;;;24.95;8.98;;;;;;;;;;4994585;28;20057;-36
2022/01/11 06:21:44;;;;;;;22.00;9.75;;;;;;;;;;4994450;28;20027;-37
2022/01/11 06:24:09;;;;;;;20.77;10.40;;;;;;;;;;4994683;28;20026;-37
2022/01/11 06:26:35;;;;;;;25.02;10.40;;;;;;;;;;4993382;28;20497;-36
2022/01/11 06:29:02;;;;;;;22.58;10.90;;;;;;;;;;4994470;28;20073;-36
2022/01/11 06:31:28;;;;;;;17.90;10.15;;;;;;;;;;4993315;28;20053;-38
2022/01/11 06:33:54;;;;;;;25.95;11.20;;;;;;;;;;4994084;28;20038;-37
2022/01/11 06:36:20;;;;;;;21.00;10.50;;;;;;;;;;4993893;28;20045;-38
2022/01/11 06:38:46;;;;;;;22.88;10.82;;;;;;;;;;4993797;28;20046;-37
2022/01/11 06:41:11;;;;;;;24.65;10.85;;;;;;;;;;4993836;28;20022;-37
2022/01/11 06:43:38;;;;;;;25.60;11.30;;;;;;;;;;4994393;28;20029;-36
2022/01/11 06:46:04;;;;;;;26.02;10.02;;;;;;;;;;4994253;28;20022;-36
2022/01/11 06:48:30;;;;;;;19.30;10.13;;;;;;;;;;4993998;28;20428;-36
2022/01/11 06:50:55;;;;;;;21.92;10.38;;;;;;;;;;4994271;28;20109;-37
2022/01/11 06:53:21;;;;;;;20.58;9.85;;;;;;;;;;4992750;28;20037;-37
2022/01/11 06:55:46;;;;;;;19.88;9.10;;;;;;;;;;4993533;28;20368;-38
2022/01/11 06:58:13;;;;;;;19.38;8.75;;;;;;;;;;4993456;28;20106;-38
2022/01/11 07:00:39;;;;;;;22.48;9.63;;;;;;;;;;4993423;28;20041;-36
2022/01/11 07:03:04;;;;;;;19.65;8.43;;;;;;;;;;4992182;28;20026;-38
2022/01/11 07:05:30;;;;;;;20.50;10.02;;;;;;;;;;4992732;28;20081;-38
2022/01/11 07:07:55;;;;;;;23.85;10.15;;;;;;;;;;4991921;28;20023;-37
2022/01/11 07:10:20;;;;;;;27.00;11.63;;;;;;;;;;4991685;28;20022;-37
2022/01/11 07:12:46;;;;;;;24.67;10.27;;;;;;;;;;4991408;28;20067;-38
2022/01/11 07:15:12;;;;;;;26.73;10.77;;;;;;;;;;4991793;28;20169;-37
2022/01/11 07:17:37;;;;;;;24.50;11.15;;;;;;;;;;4991875;28;20491;-37
2022/01/11 07:20:04;;;;;;;21.15;9.82;;;;;;;;;;4992512;28;20023;-37
2022/01/11 07:22:30;;;;;;;51.00;22.13;;;;;;;;;;4993322;28;20553;-37
2022/01/11 07:24:56;;;;;;;54.90;24.08;;;;;;;;;;4993636;28;20125;-39
2022/01/11 07:27:21;;;;;;;47.10;20.73;;;;;;;;;;4993534;28;20033;-40
2022/01/11 07:29:47;;;;;;;43.22;19.65;;;;;;;;;;4993577;28;20162;-39
2022/01/11 07:32:13;;;;;;;40.08;16.50;;;;;;;;;;4993484;28;20029;-36
2022/01/11 07:34:38;;;;;;;27.77;11.45;;;;;;;;;;4993052;28;20061;-38
2022/01/11 07:37:04;;;;;;;29.15;12.60;;;;;;;;;;4993194;28;20027;-39
2022/01/11 07:39:29;;;;;;;23.85;11.38;;;;;;;;;;4993525;28;20032;-37
2022/01/11 07:41:55;;;;;;;29.35;13.48;;;;;;;;;;4993353;28;20029;-37
2022/01/11 07:44:20;;;;;;;31.40;12.85;;;;;;;;;;4993448;28;20413;-37
2022/01/11 07:46:46;;;;;;;26.23;13.27;;;;;;;;;;4993132;28;20035;-37
2022/01/11 07:49:12;;;;;;;28.52;12.27;;;;;;;;;;4993393;28;20026;-36
2022/01/11 07:51:37;;;;;;;27.63;12.40;;;;;;;;;;4993286;28;20025;-36
2022/01/11 07:54:04;;;;;;;27.63;12.85;;;;;;;;;;4992750;28;20038;-37
2022/01/11 07:56:29;;;;;;;32.55;14.43;;;;;;;;;;4992731;28;20054;-37
2022/01/11 07:58:55;;;;;;;28.92;14.00;;;;;;;;;;4993109;28;20165;-39
2022/01/11 08:01:20;;;;;;;29.75;13.80;;;;;;;;;;4993124;28;20493;-36
2022/01/11 08:03:46;;;;;;;28.85;14.23;;;;;;;;;;4992895;28;20109;-38
2022/01/11 08:06:12;;;;;;;37.55;15.38;;;;;;;;;;4992774;28;20434;-36
2022/01/11 08:08:37;;;;;;;25.27;12.88;;;;;;;;;;4992684;28;20027;-39
2022/01/11 08:11:03;;;;;;;27.23;13.40;;;;;;;;;;4992466;28;20378;-39
2022/01/11 08:13:29;;;;;;;31.50;16.30;;;;;;;;;;4992576;28;20073;-37
2022/01/11 08:15:54;;;;;;;28.52;13.18;;;;;;;;;;4992522;28;20029;-36
2022/01/11 08:18:20;;;;;;;26.17;13.60;;;;;;;;;;4993173;28;20026;-38
2022/01/11 08:20:47;;;;;;;26.20;13.27;;;;;;;;;;4992836;28;20402;-37
2022/01/11 08:23:13;;;;;;;25.33;13.18;;;;;;;;;;4992675;28;20490;-36
2022/01/11 08:25:39;;;;;;;28.60;12.50;;;;;;;;;;4992638;28;20481;-40
2022/01/11 08:28:05;;;;;;;26.38;12.48;;;;;;;;;;4991569;28;20117;-37
2022/01/11 08:30:30;;;;;;;26.40;13.50;;;;;;;;;;4991344;28;20066;-37
2022/01/11 08:32:56;;;;;;;27.50;14.10;;;;;;;;;;4992233;28;20022;-39
2022/01/11 08:35:21;;;;;;;30.25;14.38;;;;;;;;;;4992786;28;20463;-39
2022/01/11 08:37:47;;;;;;;30.65;13.82;;;;;;;;;;4992523;28;20030;-39
2022/01/11 08:40:13;;;;;;;35.13;15.38;;;;;;;;;;4992588;28;20030;-38
2022/01/11 08:42:39;;;;;;;39.75;17.30;;;;;;;;;;4992652;28;20034;-37
2022/01/11 08:45:05;;;;;;;37.75;20.30;;;;;;;;;;4992557;28;20026;-37
2022/01/11 08:47:32;;;;;;;42.65;21.27;;;;;;;;;;4992400;28;20030;-38
2022/01/11 08:49:59;;;;;;;35.50;16.85;;;;;;;;;;4994907;28;20422;-37
2022/01/11 08:52:28;;;;;;;29.55;13.82;;;;;;;;;;4995779;28;20118;-38
2022/01/11 08:54:54;;;;;;;32.63;14.27;;;;;;;;;;4995854;28;20050;-37
2022/01/11 08:57:20;;;;;;;26.27;13.50;;;;;;;;;;4995911;28;20340;-38
2022/01/11 08:59:46;;;;;;;25.80;12.98;;;;;;;;;;4996209;28;20105;-37
2022/01/11 09:02:12;;;;;;;29.13;12.95;;;;;;;;;;4996079;28;20050;-38
2022/01/11 09:04:38;;;;;;;26.23;12.35;;;;;;;;;;4995713;28;20070;-38
2022/01/11 09:07:04;;;;;;;27.33;12.98;;;;;;;;;;4995760;28;20026;-37
2022/01/11 09:09:31;;;;;;;24.25;11.90;;;;;;;;;;4995714;28;20081;-37
2022/01/11 09:11:58;;;;;;;24.85;12.35;;;;;;;;;;4995679;28;20023;-37
2022/01/11 09:14:23;;;;;;;28.33;12.88;;;;;;;;;;4995643;28;20045;-37
2022/01/11 09:16:50;;;;;;;28.35;12.95;;;;;;;;;;4995440;28;20026;-39
2022/01/11 09:19:18;;;;;;;23.08;11.57;;;;;;;;;;4995479;28;20030;-37
2022/01/11 09:21:44;;;;;;;25.63;12.68;;;;;;;;;;4995858;28;20035;-37
2022/01/11 09:24:12;;;;;;;25.65;12.43;;;;;;;;;;4995770;28;20149;-39
2022/01/11 09:26:39;;;;;;;28.27;15.32;;;;;;;;;;4995372;28;20050;-39
2022/01/11 09:29:05;;;;;;;23.30;12.70;;;;;;;;;;4995254;28;20034;-38
2022/01/11 09:31:31;;;;;;;24.88;11.60;;;;;;;;;;4995551;28;20110;-41
2022/01/11 09:33:57;;;;;;;27.25;12.40;;;;;;;;;;4995450;28;20096;-37
2022/01/11 09:36:23;;;;;;;22.73;12.30;;;;;;;;;;4995512;28;20057;-39
2022/01/11 09:38:48;;;;;;;26.17;12.80;;;;;;;;;;4995016;28;20058;-37
2022/01/11 09:41:14;;;;;;;21.75;12.68;;;;;;;;;;4994805;28;20030;-38
2022/01/11 09:43:39;;;;;;;23.98;12.25;;;;;;;;;;4994911;28;20034;-37
2022/01/11 09:46:05;;;;;;;24.88;13.05;;;;;;;;;;4994792;28;20118;-38
2022/01/11 09:48:32;;;;;;;26.30;12.95;;;;;;;;;;4991338;28;20081;-37
2022/01/11 09:50:58;;;;;;;27.65;12.73;;;;;;;;;;4994646;28;20026;-37
2022/01/11 09:53:25;;;;;;;25.60;13.00;;;;;;;;;;4994595;28;20029;-42
2022/01/11 09:55:51;;;;;;;24.35;11.68;;;;;;;;;;4993819;28;20105;-37
2022/01/11 09:58:17;;;;;;;25.95;13.50;;;;;;;;;;4994846;28;20379;-37
2022/01/11 10:00:43;;;;;;;23.58;11.98;;;;;;;;;;4994792;28;20035;-38
2022/01/11 10:03:09;;;;;;;21.75;11.70;;;;;;;;;;4994528;28;20107;-40
2022/01/11 10:05:37;;;;;;;23.08;11.65;;;;;;;;;;4994894;28;20088;-38
2022/01/11 10:08:31;;;;;;;24.25;12.45;;;;;;;;;;4994838;28;20026;-36
2022/01/11 10:10:58;;;;;;;22.23;11.43;;;;;;;;;;4989857;28;20077;-37
2022/01/11 10:13:34;;;;;;;25.45;12.55;;;;;;;;;;4994550;28;20027;-37
2022/01/11 10:16:19;;;;;;;27.02;12.80;;;;;;;;;;4994510;28;20061;-37
2022/01/11 10:18:44;;;;;;;25.05;11.90;;;;;;;;;;4994327;28;20026;-38
2022/01/11 10:21:40;;;;;;;25.40;12.18;;;;;;;;;;4994572;28;20463;-37
2022/01/11 10:24:27;;;;;;;26.38;12.20;;;;;;;;;;4994159;28;20030;-42
2022/01/11 10:26:56;;;;;;;27.98;12.90;;;;;;;;;;4994189;28;20429;-37
2022/01/11 10:29:28;;;;;;;28.50;12.82;;;;;;;;;;4994283;28;20430;-38
2022/01/11 10:31:56;;;;;;;29.40;13.77;;;;;;;;;;4994085;28;20027;-37
2022/01/11 10:34:31;;;;;;;40.30;16.38;;;;;;;;;;4993761;28;20490;-38
2022/01/11 10:36:57;;;;;;;31.92;13.88;;;;;;;;;;4994002;28;20607;-37
2022/01/11 10:39:40;;;;;;;31.02;15.27;;;;;;;;;;4994261;28;20050;-38
2022/01/11 10:42:22;;;;;;;26.45;12.85;;;;;;;;;;4994186;28;20031;-39
2022/01/11 10:44:52;;;;;;;21.48;11.57;;;;;;;;;;4994108;28;20109;-37
2022/01/11 10:47:38;;;;;;;;;;;;;;;;;;4994407;28;20076;-36
2022/01/11 10:50:10;;;;;;;23.77;11.82;;;;;;;;;;4991274;28;19910;-40
2022/01/11 10:52:36;;;;;;;29.30;14.07;;;;;;;;;;4993501;28;20030;-41
2022/01/11 10:55:05;;;;;;;24.67;13.95;;;;;;;;;;4992785;28;20120;-46
2022/01/11 10:57:36;;;;;;;25.48;12.60;;;;;;;;;;4993691;28;20037;-40
2022/01/11 11:00:13;;;;;;;;;;;;;;;;;;4994208;28;20027;-43
2022/01/11 11:02:40;;;;;;;23.95;12.40;;;;;;;;;;4992193;28;20004;-39
2022/01/11 11:05:25;;;;;;;21.17;11.43;;;;;;;;;;4993607;28;20026;-44
2022/01/11 11:08:16;;;;;;;26.73;12.77;;;;;;;;;;4993133;28;20034;-42
2022/01/11 11:10:57;;;;;;;25.02;13.20;;;;;;;;;;4989924;28;20049;-41
2022/01/11 11:13:31;;;;;;;23.25;11.95;;;;;;;;;;4993176;28;20030;-37
2022/01/11 11:15:59;;;;;;;22.95;12.55;;;;;;;;;;4993761;28;20026;-38
2022/01/11 11:18:30;;;;;;;19.88;11.85;;;;;;;;;;4992100;28;20048;-41
2022/01/11 11:21:10;;;;;;;25.10;12.30;;;;;;;;;;4993538;28;20058;-40
2022/01/11 11:23:35;;;;;;;25.23;13.40;;;;;;;;;;4993497;28;20386;-37
2022/01/11 11:26:01;;;;;;;25.15;13.68;;;;;;;;;;4993486;28;20034;-40
2022/01/11 11:28:26;;;;;;;20.70;10.38;;;;;;;;;;4993422;28;20014;-41
2022/01/11 11:30:52;;;;;;;18.70;10.23;;;;;;;;;;4993338;28;20030;-38
2022/01/11 11:33:18;;;;;;;17.90;9.13;;;;;;;;;;4992992;28;20030;-38
2022/01/11 11:35:45;;;;;;;89.97;12.45;;;;;;;;;;4991537;28;20498;-39
2022/01/11 11:38:12;;;;;;;27.25;12.45;;;;;;;;;;4991391;28;20482;-38
2022/01/11 11:40:38;;;;;;;12.98;7.70;;;;;;;;;;4991728;28;20162;-39
2022/01/11 11:43:05;;;;;;;15.15;7.13;;;;;;;;;;4991676;28;20027;-39
2022/01/11 11:45:36;;;;;;;14.98;6.30;;;;;;;;;;4991743;28;20026;-42
2022/01/11 11:48:10;;;;;;;9.10;4.78;;;;;;;;;;4991428;28;20042;-38
2022/01/11 11:50:57;;;;;;;20.25;5.90;;;;;;;;;;4992009;28;20037;-39
2022/01/11 11:53:38;;;;;;;10.63;5.85;;;;;;;;;;4991037;28;20034;-40
2022/01/11 11:56:23;;;;;;;11.40;5.38;;;;;;;;;;4991126;28;20046;-37
2022/01/11 11:58:57;;;;;;;9.40;4.82;;;;;;;;;;4991591;28;20038;-40
2022/01/11 12:01:28;;;;;;;13.98;5.43;;;;;;;;;;4991302;28;20034;-38
2022/01/11 12:03:53;;;;;;;6.88;3.65;;;;;;;;;;4991510;28;20061;-42
2022/01/11 12:06:27;;;;;;;9.38;5.03;;;;;;;;;;4991290;28;20049;-41
2022/01/11 12:09:01;;;;;;;11.27;5.78;;;;;;;;;;4991331;28;20040;-41
2022/01/11 12:11:34;;;;;;;10.88;5.85;;;;;;;;;;4990963;28;20549;-38
2022/01/11 12:13:59;;;;;;;8.65;4.95;;;;;;;;;;4991221;28;20038;-38
2022/01/11 12:16:25;;;;;;;7.38;4.03;;;;;;;;;;4991168;28;20039;-37
2022/01/11 12:19:02;;;;;;;8.18;4.63;;;;;;;;;;4991343;28;20057;-38
2022/01/11 12:21:37;;;;;;;9.85;5.32;;;;;;;;;;4991203;28;20038;-39
2022/01/11 12:24:03;;;;;;;5.82;4.45;;;;;;;;;;4992172;28;20049;-40
2022/01/11 12:26:31;;;;;;;12.00;5.20;;;;;;;;;;4995025;28;20026;-40
2022/01/11 12:29:08;;;;;;;9.50;4.63;;;;;;;;;;4995163;28;20431;-41
2022/01/11 12:31:46;;;;;;;9.32;4.85;;;;;;;;;;4993701;28;20094;-40
2022/01/11 12:34:13;;;;;;;9.90;5.78;;;;;;;;;;4994697;28;20541;-37
2022/01/11 12:37:03;;;;;;;7.35;4.25;;;;;;;;;;4995016;28;20034;-40
2022/01/11 12:39:31;;;;;;;6.63;4.00;;;;;;;;;;4994760;28;20550;-40
2022/01/11 12:41:57;;;;;;;8.45;4.78;;;;;;;;;;4994842;28;20272;-39
2022/01/11 12:45:35;;;;;;;15.95;4.45;;;;;;;;;;4994496;28;20037;-38
2022/01/11 12:47:25;;;;;;;8.13;5.57;;;;;;;;;;4994460;28;20479;-42
2022/01/11 12:50:10;;;;;;;12.20;5.18;;;;;;;;;;4994471;28;20129;-39
2022/01/11 12:52:36;;;;;;;6.88;4.75;;;;;;;;;;4993602;28;20042;-38
2022/01/11 12:55:03;;;;;;;9.27;4.30;;;;;;;;;;4994308;28;20050;-38
2022/01/11 12:57:30;;;;;;;5.22;4.13;;;;;;;;;;4994337;28;20049;-41
2022/01/11 13:00:20;;;;;;;6.13;2.95;;;;;;;;;;4994158;28;20025;-41
2022/01/11 13:02:45;;;;;;;6.07;3.63;;;;;;;;;;4994749;28;20429;-40
2022/01/11 13:05:17;;;;;;;4.30;3.00;;;;;;;;;;4994289;28;20049;-37
2022/01/11 13:07:50;;;;;;;3.17;2.45;;;;;;;;;;4994434;28;20466;-41
2022/01/11 13:10:23;;;;;;;9.77;5.78;;;;;;;;;;4994337;28;20105;-40
2022/01/11 13:12:52;;;;;;;6.20;3.78;;;;;;;;;;4994309;28;20030;-38
2022/01/11 13:15:36;;;;;;;4.75;2.63;;;;;;;;;;4994537;28;20386;-39
2022/01/11 13:18:19;;;;;;;9.70;3.38;;;;;;;;;;4994449;28;20035;-38
2022/01/11 13:20:46;;;;;;;8.20;4.38;;;;;;;;;;4993763;28;20033;-39
2022/01/11 13:23:34;;;;;;;5.60;2.22;;;;;;;;;;4993931;28;20026;-38
2022/01/11 13:26:04;;;;;;;4.57;2.75;;;;;;;;;;4993962;28;20034;-37
2022/01/11 13:28:47;;;;;;;3.78;2.50;;;;;;;;;;4994067;28;20042;-38
2022/01/11 13:31:20;;;;;;;4.13;2.95;;;;;;;;;;4993776;28;20034;-39
2022/01/11 13:33:50;;;;;;;4.30;2.78;;;;;;;;;;4992463;28;20037;-43
2022/01/11 13:36:19;;;;;;;4.40;2.60;;;;;;;;;;4992106;28;20026;-40
2022/01/11 13:38:55;;;;;;;5.65;2.88;;;;;;;;;;4993258;28;20483;-38
2022/01/11 13:41:45;;;;;;;2.58;1.90;;;;;;;;;;4993696;28;20429;-38
2022/01/11 13:44:21;;;;;;;3.88;2.58;;;;;;;;;;4992317;28;20038;-39
2022/01/11 13:46:53;;;;;;;3.38;1.70;;;;;;;;;;4992321;28;20026;-40
2022/01/11 13:49:30;;;;;;;5.50;2.13;;;;;;;;;;4993586;28;20498;-40
2022/01/11 13:52:03;;;;;;;5.50;2.65;;;;;;;;;;4992972;28;20074;-39
2022/01/11 13:54:34;;;;;;;6.47;2.35;;;;;;;;;;4993095;28;20088;-43
2022/01/11 13:57:01;;;;;;;4.20;2.45;;;;;;;;;;4993807;28;20135;-39
2022/01/11 13:59:29;;;;;;;4.35;2.63;;;;;;;;;;4993343;28;20602;-43
2022/01/11 14:02:20;;;;;;;5.53;3.47;;;;;;;;;;4993206;28;20113;-42
2022/01/11 14:04:54;;;;;;;7.22;3.72;;;;;;;;;;4993338;28;20026;-44
2022/01/11 14:07:28;;;;;;;4.22;2.95;;;;;;;;;;4992990;28;20030;-41
2022/01/11 14:10:04;;;;;;;8.98;5.53;;;;;;;;;;4992773;28;20483;-38
2022/01/11 14:12:49;;;;;;;7.03;4.57;;;;;;;;;;4993023;28;20034;-40
2022/01/11 14:15:16;;;;;;;5.78;3.80;;;;;;;;;;4993147;28;20101;-39
2022/01/11 14:17:43;;;;;;;5.55;3.33;;;;;;;;;;4993256;28;20022;-40
2022/01/11 14:20:19;;;;;;;7.60;4.82;;;;;;;;;;4992604;28;20038;-41
2022/01/11 14:22:47;;;;;;;5.10;2.70;;;;;;;;;;4993119;28;20038;-43
2022/01/11 14:25:29;;;;;;;5.63;3.55;;;;;;;;;;4993032;28;20486;-41
2022/01/11 14:28:12;;;;;;;7.63;3.60;;;;;;;;;;4992783;28;20529;-40
2022/01/11 14:30:50;;;;;;;4.25;2.90;;;;;;;;;;4992807;28;20037;-37
2022/01/11 14:33:24;;;;;;;5.50;3.38;;;;;;;;;;4992634;28;20087;-42
2022/01/11 14:36:16;;;;;;;5.55;3.50;;;;;;;;;;4993007;28;20022;-39